createdAt,value
2017-12-30T00:00:57.973Z,806.67
2017-12-30T00:01:57.980Z,806.72
2017-12-30T00:02:57.986Z,806.67
2017-12-30T00:03:57.991Z,806.65
2017-12-30T00:04:57.992Z,806.61
2017-12-30T00:05:57.995Z,806.57
2017-12-30T00:06:57.994Z,806.67
2017-12-30T00:07:57.998Z,806.62
2017-12-30T00:08:58.003Z,806.71
2017-12-30T00:09:58.012Z,806.72
2017-12-30T00:10:58.014Z,806.70
2017-12-30T00:11:58.020Z,806.73
2017-12-30T00:12:58.016Z,806.84
2017-12-30T00:13:58.020Z,806.85
2017-12-30T00:14:58.029Z,806.84
2017-12-30T00:15:58.027Z,806.82
2017-12-30T00:16:58.032Z,806.76
2017-12-30T00:17:58.040Z,806.74
2017-12-30T00:18:58.045Z,806.80
2017-12-30T00:19:58.050Z,806.87
2017-12-30T00:20:58.056Z,806.88
2017-12-30T00:21:58.049Z,806.86
2017-12-30T00:22:58.054Z,806.84
2017-12-30T00:23:58.100Z,807.03
2017-12-30T00:24:58.081Z,806.88
2017-12-30T00:25:58.064Z,806.89
2017-12-30T00:26:58.073Z,806.89
2017-12-30T00:27:58.070Z,806.85
2017-12-30T00:28:58.076Z,806.92
2017-12-30T00:29:58.078Z,806.93
2017-12-30T00:30:58.082Z,806.93
2017-12-30T00:31:58.085Z,806.95
2017-12-30T00:32:58.090Z,806.78
2017-12-30T00:33:58.093Z,806.87
2017-12-30T00:34:58.102Z,806.95
2017-12-30T00:35:58.110Z,806.94
2017-12-30T00:36:58.110Z,806.88
2017-12-30T00:37:58.115Z,806.94
2017-12-30T00:38:58.118Z,806.87
2017-12-30T00:39:58.122Z,806.88
2017-12-30T00:40:58.124Z,806.92
2017-12-30T00:41:58.127Z,806.81
2017-12-30T00:42:58.131Z,806.87
2017-12-30T00:43:58.136Z,806.90
2017-12-30T00:44:58.142Z,806.84
2017-12-30T00:45:58.144Z,806.78
2017-12-30T00:46:58.146Z,806.84
2017-12-30T00:47:58.146Z,806.89
2017-12-30T00:48:58.153Z,806.90
2017-12-30T00:49:58.158Z,806.95
2017-12-30T00:50:58.161Z,806.94
2017-12-30T00:51:58.159Z,807.00
2017-12-30T00:52:58.172Z,807.00
2017-12-30T00:53:58.173Z,806.98
2017-12-30T00:54:58.173Z,806.95
2017-12-30T00:55:58.180Z,807.02
2017-12-30T00:56:58.182Z,807.08
2017-12-30T00:57:58.181Z,807.08
2017-12-30T00:58:58.185Z,807.24
2017-12-30T00:59:58.196Z,807.20
2017-12-30T01:00:58.197Z,807.25
2017-12-30T01:01:58.195Z,807.27
2017-12-30T01:02:58.199Z,807.34
2017-12-30T01:03:58.207Z,807.26
2017-12-30T01:04:58.213Z,807.29
2017-12-30T01:05:58.218Z,807.27
2017-12-30T01:06:58.215Z,807.32
2017-12-30T01:07:58.219Z,807.36
2017-12-30T01:08:58.227Z,807.38
2017-12-30T01:09:58.227Z,807.39
2017-12-30T01:10:58.229Z,807.40
2017-12-30T01:11:58.233Z,807.42
2017-12-30T01:12:58.238Z,807.50
2017-12-30T01:13:58.247Z,807.43
2017-12-30T01:14:58.250Z,807.42
2017-12-30T01:15:58.252Z,807.42
2017-12-30T01:16:58.253Z,807.39
2017-12-30T01:17:58.258Z,807.36
2017-12-30T01:18:58.257Z,807.32
2017-12-30T01:19:58.267Z,807.30
2017-12-30T01:20:58.271Z,807.43
2017-12-30T01:21:58.268Z,807.43
2017-12-30T01:22:58.272Z,807.40
2017-12-30T01:23:58.276Z,807.42
2017-12-30T01:24:58.282Z,807.44
2017-12-30T01:25:58.289Z,807.50
2017-12-30T01:26:58.287Z,807.63
2017-12-30T01:27:58.297Z,807.58
2017-12-30T01:28:58.300Z,807.56
2017-12-30T01:29:58.304Z,807.67
2017-12-30T01:30:58.304Z,807.58
2017-12-30T01:31:58.312Z,807.58
2017-12-30T01:32:58.308Z,807.55
2017-12-30T01:33:58.320Z,807.57
2017-12-30T01:34:58.315Z,807.59
2017-12-30T01:35:58.326Z,807.59
2017-12-30T01:36:58.330Z,807.61
2017-12-30T01:37:58.332Z,807.53
2017-12-30T01:38:58.331Z,807.55
2017-12-30T01:39:58.340Z,807.61
2017-12-30T01:40:58.338Z,807.70
2017-12-30T01:41:58.341Z,807.67
2017-12-30T01:42:58.351Z,807.73
2017-12-30T01:43:58.357Z,807.67
2017-12-30T01:44:58.360Z,807.61
2017-12-30T01:45:58.354Z,807.59
2017-12-30T01:46:58.358Z,807.55
2017-12-30T01:47:58.371Z,807.53
2017-12-30T01:48:58.373Z,807.50
2017-12-30T01:49:58.376Z,807.47
2017-12-30T01:50:58.381Z,807.51
2017-12-30T01:51:58.377Z,807.57
2017-12-30T01:52:58.382Z,807.56
2017-12-30T01:53:58.382Z,807.52
2017-12-30T01:54:58.393Z,807.51
2017-12-30T01:55:58.394Z,807.56
2017-12-30T01:56:58.395Z,807.58
2017-12-30T01:57:58.404Z,807.58
2017-12-30T01:58:58.408Z,807.55
2017-12-30T01:59:58.405Z,807.57
2017-12-30T02:00:58.413Z,807.56
2017-12-30T02:01:58.418Z,807.54
2017-12-30T02:02:58.414Z,807.55
2017-12-30T02:03:58.422Z,807.57
2017-12-30T02:04:58.428Z,807.56
2017-12-30T02:05:58.432Z,807.59
2017-12-30T02:06:58.431Z,807.58
2017-12-30T02:07:58.438Z,807.65
2017-12-30T02:08:58.438Z,807.73
2017-12-30T02:09:58.445Z,807.72
2017-12-30T02:10:58.451Z,807.67
2017-12-30T02:11:58.454Z,807.72
2017-12-30T02:12:58.458Z,807.64
2017-12-30T02:13:58.458Z,807.60
2017-12-30T02:14:58.461Z,807.62
2017-12-30T02:15:58.465Z,807.67
2017-12-30T02:16:58.472Z,807.69
2017-12-30T02:17:58.476Z,807.74
2017-12-30T02:18:58.476Z,807.70
2017-12-30T02:19:58.486Z,807.72
2017-12-30T02:20:58.488Z,807.65
2017-12-30T02:21:58.492Z,807.64
2017-12-30T02:22:58.499Z,807.68
2017-12-30T02:23:58.500Z,807.66
2017-12-30T02:24:58.499Z,807.59
2017-12-30T02:25:58.502Z,807.60
2017-12-30T02:26:58.512Z,807.61
2017-12-30T02:27:58.509Z,807.67
2017-12-30T02:28:58.515Z,807.63
2017-12-30T02:29:58.527Z,807.60
2017-12-30T02:30:58.530Z,807.55
2017-12-30T02:31:58.527Z,807.54
2017-12-30T02:32:58.532Z,807.58
2017-12-30T02:33:58.542Z,807.52
2017-12-30T02:34:58.538Z,807.46
2017-12-30T02:35:58.545Z,807.42
2017-12-30T02:36:58.547Z,807.44
2017-12-30T02:37:58.550Z,807.46
2017-12-30T02:38:58.557Z,807.41
2017-12-30T02:39:58.564Z,807.43
2017-12-30T02:40:58.564Z,807.36
2017-12-30T02:41:58.566Z,807.40
2017-12-30T02:42:58.576Z,807.34
2017-12-30T02:43:58.576Z,807.41
2017-12-30T02:44:58.580Z,807.37
2017-12-30T02:45:58.584Z,807.35
2017-12-30T02:46:58.587Z,807.34
2017-12-30T02:47:58.598Z,807.36
2017-12-30T02:48:58.659Z,807.36
2017-12-30T02:49:58.606Z,807.33
2017-12-30T02:50:58.611Z,807.41
2017-12-30T02:51:58.614Z,807.40
2017-12-30T02:52:58.619Z,807.34
2017-12-30T02:53:58.620Z,807.32
2017-12-30T02:54:58.625Z,807.31
2017-12-30T02:55:58.629Z,807.11
2017-12-30T02:56:58.638Z,807.37
2017-12-30T02:57:58.639Z,807.29
2017-12-30T02:58:58.635Z,807.25
2017-12-30T02:59:58.646Z,807.22
2017-12-30T03:00:58.645Z,807.20
2017-12-30T03:01:58.651Z,807.14
2017-12-30T03:02:58.652Z,807.19
2017-12-30T03:03:58.655Z,807.11
2017-12-30T03:04:58.665Z,807.19
2017-12-30T03:05:58.671Z,807.16
2017-12-30T03:06:58.669Z,807.19
2017-12-30T03:07:58.673Z,807.16
2017-12-30T03:08:58.676Z,807.10
2017-12-30T03:09:58.680Z,807.10
2017-12-30T03:10:58.690Z,807.11
2017-12-30T03:11:58.694Z,807.11
2017-12-30T03:12:58.693Z,807.09
2017-12-30T03:13:58.695Z,807.10
2017-12-30T03:14:58.699Z,807.18
2017-12-30T03:15:58.710Z,807.18
2017-12-30T03:16:58.709Z,807.12
2017-12-30T03:17:58.712Z,807.12
2017-12-30T03:18:58.717Z,807.14
2017-12-30T03:19:58.728Z,807.17
2017-12-30T03:20:58.727Z,807.20
2017-12-30T03:21:58.729Z,807.20
2017-12-30T03:22:58.733Z,807.19
2017-12-30T03:23:58.744Z,807.18
2017-12-30T03:24:58.743Z,807.14
2017-12-30T03:25:58.753Z,807.12
2017-12-30T03:26:58.752Z,807.05
2017-12-30T03:27:58.763Z,807.15
2017-12-30T03:28:58.768Z,807.19
2017-12-30T03:29:58.763Z,807.22
2017-12-30T03:30:58.776Z,807.20
2017-12-30T03:31:58.774Z,807.22
2017-12-30T03:32:58.784Z,807.25
2017-12-30T03:33:58.783Z,807.27
2017-12-30T03:34:58.786Z,807.19
2017-12-30T03:35:58.799Z,807.16
2017-12-30T03:36:58.796Z,807.26
2017-12-30T03:37:58.800Z,807.16
2017-12-30T03:38:58.813Z,807.25
2017-12-30T03:39:58.817Z,807.29
2017-12-30T03:40:58.820Z,807.20
2017-12-30T03:41:58.818Z,807.13
2017-12-30T03:42:58.822Z,807.08
2017-12-30T03:43:58.835Z,807.12
2017-12-30T03:44:58.833Z,807.20
2017-12-30T03:45:58.852Z,807.23
2017-12-30T03:46:58.841Z,807.24
2017-12-30T03:47:58.849Z,807.24
2017-12-30T03:48:58.856Z,807.26
2017-12-30T03:49:58.854Z,807.36
2017-12-30T03:50:58.866Z,807.34
2017-12-30T03:51:58.868Z,807.36
2017-12-30T03:52:58.874Z,807.34
2017-12-30T03:53:58.873Z,807.28
2017-12-30T03:54:58.878Z,807.33
2017-12-30T03:55:58.882Z,807.33
2017-12-30T03:56:58.888Z,807.33
2017-12-30T03:57:58.893Z,807.36
2017-12-30T03:58:58.903Z,807.34
2017-12-30T03:59:58.901Z,807.38
2017-12-30T04:00:58.905Z,807.38
2017-12-30T04:01:58.914Z,807.40
2017-12-30T04:02:58.919Z,807.44
2017-12-30T04:03:58.918Z,807.44
2017-12-30T04:04:58.924Z,807.48
2017-12-30T04:05:58.927Z,807.37
2017-12-30T04:06:58.932Z,807.33
2017-12-30T04:07:58.942Z,807.36
2017-12-30T04:08:58.942Z,807.46
2017-12-30T04:09:58.957Z,807.41
2017-12-30T04:10:58.956Z,807.39
2017-12-30T04:11:58.960Z,807.48
2017-12-30T04:12:58.966Z,807.37
2017-12-30T04:13:58.968Z,807.32
2017-12-30T04:14:58.983Z,807.28
2017-12-30T04:15:58.975Z,807.28
2017-12-30T04:16:58.978Z,807.33
2017-12-30T04:17:58.993Z,807.37
2017-12-30T04:18:58.992Z,807.30
2017-12-30T04:19:58.991Z,807.27
2017-12-30T04:20:59.003Z,807.26
2017-12-30T04:21:59.007Z,807.26
2017-12-30T04:22:59.006Z,807.25
2017-12-30T04:23:59.016Z,807.33
2017-12-30T04:24:59.021Z,807.37
2017-12-30T04:25:59.020Z,807.36
2017-12-30T04:26:59.024Z,807.31
2017-12-30T04:27:59.039Z,807.20
2017-12-30T04:28:59.033Z,807.26
2017-12-30T04:29:59.044Z,807.18
2017-12-30T04:30:59.044Z,807.15
2017-12-30T04:31:59.048Z,807.15
2017-12-30T04:32:59.052Z,807.15
2017-12-30T04:33:59.057Z,807.15
2017-12-30T04:34:59.061Z,806.93
2017-12-30T04:35:59.069Z,806.97
2017-12-30T04:36:59.070Z,807.03
2017-12-30T04:37:59.076Z,807.13
2017-12-30T04:38:59.088Z,807.13
2017-12-30T04:39:59.090Z,807.15
2017-12-30T04:40:59.095Z,807.04
2017-12-30T04:41:59.098Z,807.01
2017-12-30T04:42:59.105Z,807.05
2017-12-30T04:43:59.107Z,807.14
2017-12-30T04:44:59.113Z,807.20
2017-12-30T04:45:59.112Z,807.17
2017-12-30T04:46:59.122Z,807.16
2017-12-30T04:47:59.122Z,807.20
2017-12-30T04:48:59.126Z,807.20
2017-12-30T04:49:59.130Z,807.20
2017-12-30T04:50:59.136Z,807.23
2017-12-30T04:52:30.222Z,807.17
2017-12-30T04:52:59.208Z,807.21
2017-12-30T04:53:59.229Z,807.20
2017-12-30T04:54:59.161Z,807.21
2017-12-30T04:55:59.163Z,807.23
2017-12-30T04:56:59.170Z,807.24
2017-12-30T04:57:59.168Z,807.24
2017-12-30T04:58:59.199Z,807.18
2017-12-30T04:59:59.184Z,807.16
2017-12-30T05:00:59.189Z,807.12
2017-12-30T05:01:59.193Z,807.11
2017-12-30T05:02:59.243Z,807.13
2017-12-30T05:03:59.210Z,807.19
2017-12-30T05:04:59.208Z,807.22
2017-12-30T05:05:59.206Z,807.24
2017-12-30T05:06:59.304Z,807.32
2017-12-30T05:07:59.223Z,807.33
2017-12-30T05:08:59.226Z,807.32
2017-12-30T05:09:59.233Z,807.29
2017-12-30T05:10:59.234Z,807.30
2017-12-30T05:11:59.243Z,807.30
2017-12-30T05:12:59.248Z,807.27
2017-12-30T05:13:59.252Z,807.27
2017-12-30T05:14:59.259Z,807.32
2017-12-30T05:15:59.263Z,807.33
2017-12-30T05:16:59.277Z,807.37
2017-12-30T05:17:59.270Z,807.34
2017-12-30T05:18:59.277Z,807.33
2017-12-30T05:19:59.282Z,807.33
2017-12-30T05:20:59.283Z,807.31
2017-12-30T05:21:59.287Z,807.40
2017-12-30T05:22:59.294Z,807.40
2017-12-30T05:23:59.305Z,807.46
2017-12-30T05:24:59.313Z,807.48
2017-12-30T05:25:59.355Z,807.51
2017-12-30T05:26:59.318Z,807.56
2017-12-30T05:27:59.319Z,807.54
2017-12-30T05:28:59.330Z,807.49
2017-12-30T05:29:59.327Z,807.50
2017-12-30T05:30:59.340Z,807.50
2017-12-30T05:31:59.339Z,807.51
2017-12-30T05:32:59.352Z,807.52
2017-12-30T05:33:59.352Z,807.56
2017-12-30T05:34:59.354Z,807.58
2017-12-30T05:35:59.367Z,807.53
2017-12-30T05:36:59.371Z,807.57
2017-12-30T05:37:59.370Z,807.52
2017-12-30T05:38:59.381Z,807.48
2017-12-30T05:39:59.390Z,807.50
2017-12-30T05:40:59.385Z,807.52
2017-12-30T05:41:59.389Z,807.56
2017-12-30T05:42:59.395Z,807.56
2017-12-30T05:43:59.407Z,807.61
2017-12-30T05:44:59.411Z,807.56
2017-12-30T05:45:59.417Z,807.57
2017-12-30T05:46:59.421Z,807.58
2017-12-30T05:47:59.423Z,807.58
2017-12-30T05:48:59.431Z,807.62
2017-12-30T05:49:59.430Z,807.59
2017-12-30T05:50:59.437Z,807.62
2017-12-30T05:51:59.448Z,807.65
2017-12-30T05:52:59.452Z,807.66
2017-12-30T05:53:59.459Z,807.65
2017-12-30T05:54:59.462Z,807.65
2017-12-30T05:55:59.460Z,807.64
2017-12-30T05:56:59.466Z,807.58
2017-12-30T05:57:59.470Z,807.60
2017-12-30T05:58:59.483Z,807.58
2017-12-30T05:59:59.485Z,807.61
2017-12-30T06:00:59.486Z,807.57
2017-12-30T06:01:59.495Z,807.58
2017-12-30T06:02:59.503Z,807.60
2017-12-30T06:03:59.500Z,807.63
2017-12-30T06:04:59.505Z,807.62
2017-12-30T06:05:59.515Z,807.62
2017-12-30T06:06:59.520Z,807.59
2017-12-30T06:07:59.519Z,807.57
2017-12-30T06:08:59.529Z,807.56
2017-12-30T06:09:59.535Z,807.58
2017-12-30T06:10:59.538Z,807.62
2017-12-30T06:11:59.544Z,807.60
2017-12-30T06:12:59.543Z,807.64
2017-12-30T06:13:59.553Z,807.58
2017-12-30T06:14:59.554Z,807.60
2017-12-30T06:15:59.563Z,807.66
2017-12-30T06:16:59.563Z,807.69
2017-12-30T06:17:59.567Z,807.62
2017-12-30T06:18:59.578Z,807.56
2017-12-30T06:19:59.576Z,807.56
2017-12-30T06:20:59.590Z,807.49
2017-12-30T06:21:59.592Z,807.55
2017-12-30T06:22:59.595Z,807.51
2017-12-30T06:23:59.595Z,807.51
2017-12-30T06:24:59.600Z,807.48
2017-12-30T06:25:59.611Z,807.47
2017-12-30T06:26:59.609Z,807.46
2017-12-30T06:27:59.620Z,807.44
2017-12-30T06:28:59.625Z,807.48
2017-12-30T06:29:59.622Z,807.48
2017-12-30T06:30:59.634Z,807.49
2017-12-30T06:31:59.632Z,807.45
2017-12-30T06:32:59.642Z,807.52
2017-12-30T06:33:59.641Z,807.55
2017-12-30T06:34:59.651Z,807.59
2017-12-30T06:35:59.661Z,807.59
2017-12-30T06:36:59.654Z,807.64
2017-12-30T06:37:59.661Z,807.71
2017-12-30T06:38:59.670Z,807.69
2017-12-30T06:39:59.675Z,807.64
2017-12-30T06:40:59.676Z,807.74
2017-12-30T06:41:59.685Z,807.77
2017-12-30T06:42:59.689Z,807.80
2017-12-30T06:43:59.695Z,807.82
2017-12-30T06:44:59.695Z,807.84
2017-12-30T06:45:59.700Z,807.82
2017-12-30T06:46:59.703Z,807.79
2017-12-30T06:47:59.709Z,807.84
2017-12-30T06:48:59.725Z,807.87
2017-12-30T06:49:59.718Z,807.91
2017-12-30T06:50:59.725Z,807.87
2017-12-30T06:51:59.758Z,807.84
2017-12-30T06:52:59.734Z,807.86
2017-12-30T06:53:59.746Z,807.82
2017-12-30T06:54:59.768Z,807.86
2017-12-30T06:55:59.749Z,807.83
2017-12-30T06:56:59.850Z,807.93
2017-12-30T06:57:59.760Z,807.90
2017-12-30T06:58:59.765Z,807.92
2017-12-30T06:59:59.777Z,807.88
2017-12-30T07:00:59.840Z,807.89
2017-12-30T07:01:59.792Z,807.88
2017-12-30T07:02:59.785Z,807.85
2017-12-30T07:03:59.792Z,807.86
2017-12-30T07:04:59.802Z,807.88
2017-12-30T07:05:59.801Z,807.89
2017-12-30T07:06:59.817Z,807.88
2017-12-30T07:07:59.813Z,807.84
2017-12-30T07:08:59.823Z,807.78
2017-12-30T07:09:59.833Z,807.74
2017-12-30T07:10:59.828Z,807.76
2017-12-30T07:11:59.834Z,807.78
2017-12-30T07:12:59.847Z,807.81
2017-12-30T07:13:59.844Z,807.87
2017-12-30T07:14:59.849Z,807.92
2017-12-30T07:15:59.855Z,807.91
2017-12-30T07:16:59.860Z,807.89
2017-12-30T07:17:59.867Z,807.91
2017-12-30T07:18:59.870Z,807.89
2017-12-30T07:19:59.884Z,807.92
2017-12-30T07:20:59.888Z,807.93
2017-12-30T07:21:59.892Z,807.91
2017-12-30T07:22:59.894Z,807.94
2017-12-30T07:23:59.911Z,807.90
2017-12-30T07:24:59.911Z,807.85
2017-12-30T07:25:59.909Z,807.87
2017-12-30T07:26:59.920Z,807.84
2017-12-30T07:27:59.921Z,807.78
2017-12-30T07:28:59.930Z,807.84
2017-12-30T07:29:59.930Z,807.85
2017-12-30T07:30:59.942Z,807.84
2017-12-30T07:31:59.950Z,807.86
2017-12-30T07:33:00.104Z,807.89
2017-12-30T07:33:59.958Z,807.84
2017-12-30T07:34:59.962Z,807.79
2017-12-30T07:35:59.971Z,807.82
2017-12-30T07:36:59.973Z,807.89
2017-12-30T07:37:59.979Z,807.94
2017-12-30T07:38:59.978Z,808.00
2017-12-30T07:39:59.984Z,808.01
2017-12-30T07:40:59.990Z,808.04
2017-12-30T07:42:00.003Z,807.91
2017-12-30T07:42:59.998Z,807.84
2017-12-30T07:44:00.022Z,807.82
2017-12-30T07:45:00.018Z,807.80
2017-12-30T07:46:00.021Z,807.89
2017-12-30T07:47:00.026Z,807.92
2017-12-30T07:48:00.028Z,807.76
2017-12-30T07:49:00.031Z,807.80
2017-12-30T07:50:00.047Z,807.71
2017-12-30T07:51:00.041Z,807.73
2017-12-30T07:52:00.055Z,807.79
2017-12-30T07:53:00.058Z,807.88
2017-12-30T07:54:00.059Z,807.85
2017-12-30T07:55:00.072Z,807.87
2017-12-30T07:56:00.074Z,807.90
2017-12-30T07:57:00.072Z,807.83
2017-12-30T07:58:00.079Z,807.85
2017-12-30T07:59:00.091Z,807.89
2017-12-30T08:00:00.098Z,808.00
2017-12-30T08:01:00.105Z,807.91
2017-12-30T08:02:00.102Z,807.88
2017-12-30T08:03:00.103Z,807.81
2017-12-30T08:04:00.110Z,807.92
2017-12-30T08:05:00.122Z,807.96
2017-12-30T08:06:00.131Z,807.91
2017-12-30T08:07:00.134Z,808.09
2017-12-30T08:08:00.131Z,807.88
2017-12-30T08:09:00.139Z,807.80
2017-12-30T08:10:00.143Z,807.86
2017-12-30T08:11:00.148Z,807.80
2017-12-30T08:12:00.156Z,807.88
2017-12-30T08:13:00.171Z,807.94
2017-12-30T08:14:00.169Z,808.00
2017-12-30T08:15:00.166Z,808.13
2017-12-30T08:16:00.175Z,808.18
2017-12-30T08:17:00.184Z,808.12
2017-12-30T08:18:00.188Z,808.10
2017-12-30T08:19:00.202Z,808.11
2017-12-30T08:20:00.198Z,808.13
2017-12-30T08:21:00.211Z,808.18
2017-12-30T08:22:00.210Z,808.17
2017-12-30T08:23:00.212Z,808.25
2017-12-30T08:24:00.222Z,808.04
2017-12-30T08:25:00.221Z,808.07
2017-12-30T08:26:00.238Z,808.18
2017-12-30T08:27:00.237Z,808.27
2017-12-30T08:28:00.243Z,808.30
2017-12-30T08:29:00.249Z,808.33
2017-12-30T08:30:00.261Z,808.34
2017-12-30T08:31:00.261Z,808.35
2017-12-30T08:32:00.268Z,808.28
2017-12-30T08:33:00.276Z,808.28
2017-12-30T08:34:00.270Z,808.46
2017-12-30T08:35:00.298Z,808.44
2017-12-30T08:36:00.631Z,808.39
2017-12-30T08:37:00.399Z,808.31
2017-12-30T08:38:00.430Z,808.43
2017-12-30T08:39:00.410Z,808.54
2017-12-30T08:40:00.429Z,808.69
2017-12-30T08:41:00.425Z,808.58
2017-12-30T08:42:00.446Z,808.54
2017-12-30T08:43:00.478Z,808.53
2017-12-30T08:44:00.451Z,808.51
2017-12-30T08:45:00.438Z,808.54
2017-12-30T08:46:00.452Z,808.72
2017-12-30T08:47:00.432Z,808.86
2017-12-30T08:48:00.521Z,808.65
2017-12-30T08:49:00.457Z,808.83
2017-12-30T08:50:00.491Z,808.89
2017-12-30T08:51:00.463Z,809.13
2017-12-30T08:52:00.484Z,809.10
2017-12-30T08:53:00.478Z,809.09
2017-12-30T08:54:00.502Z,809.02
2017-12-30T08:55:00.480Z,809.02
2017-12-30T08:56:00.511Z,808.95
2017-12-30T08:57:00.516Z,809.25
2017-12-30T08:58:00.576Z,809.08
2017-12-30T08:59:00.504Z,809.29
2017-12-30T09:00:00.541Z,809.26
2017-12-30T09:01:00.522Z,809.21
2017-12-30T09:02:00.553Z,809.23
2017-12-30T09:03:00.567Z,809.04
2017-12-30T09:04:00.554Z,809.12
2017-12-30T09:05:00.537Z,809.41
2017-12-30T09:06:00.626Z,809.53
2017-12-30T09:07:00.552Z,809.45
2017-12-30T09:08:00.597Z,809.25
2017-12-30T09:09:00.568Z,809.12
2017-12-30T09:10:00.598Z,809.12
2017-12-30T09:11:00.638Z,809.07
2017-12-30T09:12:00.604Z,809.19
2017-12-30T09:13:00.587Z,809.18
2017-12-30T09:14:00.636Z,809.21
2017-12-30T09:15:00.628Z,809.38
2017-12-30T09:16:00.522Z,809.45
2017-12-30T09:17:00.540Z,809.37
2017-12-30T09:18:00.534Z,809.35
2017-12-30T09:19:00.545Z,809.36
2017-12-30T09:20:00.551Z,809.44
2017-12-30T09:21:00.564Z,809.51
2017-12-30T09:22:00.558Z,809.62
2017-12-30T09:23:00.569Z,809.62
2017-12-30T09:24:00.573Z,809.54
2017-12-30T09:25:00.587Z,809.62
2017-12-30T09:26:00.582Z,809.70
2017-12-30T09:27:00.595Z,809.59
2017-12-30T09:28:00.597Z,809.71
2017-12-30T09:29:00.606Z,809.82
2017-12-30T09:30:00.609Z,809.65
2017-12-30T09:31:00.620Z,809.86
2017-12-30T09:32:00.624Z,809.90
2017-12-30T09:33:00.632Z,809.87
2017-12-30T09:34:00.641Z,809.91
2017-12-30T09:35:00.654Z,809.87
2017-12-30T09:36:00.651Z,809.85
2017-12-30T09:37:00.654Z,809.91
2017-12-30T09:38:00.666Z,810.07
2017-12-30T09:39:00.671Z,810.16
2017-12-30T09:40:00.680Z,810.04
2017-12-30T09:41:00.680Z,810.02
2017-12-30T09:42:00.690Z,810.04
2017-12-30T09:43:00.698Z,810.03
2017-12-30T09:44:00.704Z,810.07
2017-12-30T09:45:00.706Z,810.24
2017-12-30T09:46:00.712Z,810.11
2017-12-30T09:47:00.718Z,810.04
2017-12-30T09:48:00.734Z,810.05
2017-12-30T09:49:00.733Z,810.07
2017-12-30T09:50:00.737Z,810.15
2017-12-30T09:51:00.744Z,810.06
2017-12-30T09:52:00.756Z,809.95
2017-12-30T09:53:00.763Z,810.02
2017-12-30T09:54:00.764Z,810.19
2017-12-30T09:55:00.771Z,810.26
2017-12-30T09:56:00.788Z,810.22
2017-12-30T09:57:00.790Z,810.11
2017-12-30T09:58:00.792Z,810.09
2017-12-30T09:59:00.799Z,810.20
2017-12-30T10:00:00.804Z,810.20
2017-12-30T10:01:00.810Z,810.26
2017-12-30T10:02:00.819Z,810.40
2017-12-30T10:03:00.829Z,810.38
2017-12-30T10:04:00.844Z,810.30
2017-12-30T10:05:00.854Z,810.46
2017-12-30T10:06:00.846Z,810.36
2017-12-30T10:07:00.855Z,810.41
2017-12-30T10:08:00.861Z,810.39
2017-12-30T10:09:00.873Z,810.48
2017-12-30T10:10:00.883Z,810.48
2017-12-30T10:11:00.881Z,810.39
2017-12-30T10:12:00.895Z,810.33
2017-12-30T10:13:00.899Z,810.36
2017-12-30T10:14:00.908Z,810.31
2017-12-30T10:15:00.913Z,810.56
2017-12-30T10:16:00.920Z,810.42
2017-12-30T10:17:00.927Z,810.36
2017-12-30T10:18:00.937Z,810.47
2017-12-30T10:19:00.940Z,810.45
2017-12-30T10:20:00.951Z,810.34
2017-12-30T10:21:00.950Z,810.31
2017-12-30T10:22:00.958Z,810.37
2017-12-30T10:23:00.967Z,810.53
2017-12-30T10:24:00.974Z,810.39
2017-12-30T10:25:00.986Z,810.32
2017-12-30T10:26:01.045Z,810.20
2017-12-30T10:27:00.996Z,810.30
2017-12-30T10:28:01.015Z,810.40
2017-12-30T10:29:01.018Z,810.29
2017-12-30T10:30:01.024Z,810.41
2017-12-30T10:31:01.027Z,810.35
2017-12-30T10:32:01.043Z,810.22
2017-12-30T10:33:01.047Z,810.29
2017-12-30T10:34:01.055Z,810.01
2017-12-30T10:35:01.061Z,810.23
2017-12-30T10:36:01.077Z,810.44
2017-12-30T10:37:01.072Z,810.32
2017-12-30T10:38:01.089Z,810.16
2017-12-30T10:39:01.086Z,810.14
2017-12-30T10:40:01.091Z,810.10
2017-12-30T10:41:01.107Z,810.24
2017-12-30T10:42:01.109Z,810.25
2017-12-30T10:43:01.122Z,810.31
2017-12-30T10:44:01.120Z,810.30
2017-12-30T10:45:01.132Z,810.20
2017-12-30T10:46:01.141Z,810.26
2017-12-30T10:47:01.153Z,810.24
2017-12-30T10:48:01.155Z,810.32
2017-12-30T10:49:01.175Z,810.36
2017-12-30T10:50:01.172Z,810.42
2017-12-30T10:51:01.193Z,810.42
2017-12-30T10:52:01.186Z,810.45
2017-12-30T10:53:01.194Z,810.28
2017-12-30T10:54:01.197Z,810.41
2017-12-30T10:55:01.213Z,810.47
2017-12-30T10:56:01.213Z,810.35
2017-12-30T10:57:01.227Z,810.36
2017-12-30T10:58:01.226Z,810.48
2017-12-30T10:59:01.242Z,810.44
2017-12-30T11:00:01.250Z,810.44
2017-12-30T11:01:01.256Z,810.63
2017-12-30T11:02:01.262Z,810.55
2017-12-30T11:03:01.267Z,810.64
2017-12-30T11:04:01.278Z,810.69
2017-12-30T11:05:01.285Z,810.74
2017-12-30T11:06:01.295Z,810.70
2017-12-30T11:07:01.304Z,810.78
2017-12-30T11:08:01.302Z,810.88
2017-12-30T11:09:01.310Z,810.86
2017-12-30T11:10:01.323Z,810.88
2017-12-30T11:11:01.330Z,810.79
2017-12-30T11:12:01.337Z,810.88
2017-12-30T11:13:01.345Z,810.77
2017-12-30T11:14:01.354Z,810.77
2017-12-30T11:15:01.367Z,810.74
2017-12-30T11:16:01.361Z,810.73
2017-12-30T11:17:01.374Z,810.82
2017-12-30T11:18:01.383Z,810.77
2017-12-30T11:19:01.390Z,810.83
2017-12-30T11:20:01.398Z,810.82
2017-12-30T11:21:01.404Z,810.88
2017-12-30T11:22:01.413Z,810.88
2017-12-30T11:23:01.421Z,810.76
2017-12-30T11:24:01.451Z,810.71
2017-12-30T11:25:01.437Z,810.81
2017-12-30T11:26:01.441Z,810.94
2017-12-30T11:27:01.451Z,810.93
2017-12-30T11:28:01.463Z,810.90
2017-12-30T11:29:01.474Z,810.85
2017-12-30T11:30:01.470Z,810.87
2017-12-30T11:31:01.483Z,810.92
2017-12-30T11:32:01.489Z,810.92
2017-12-30T11:33:01.497Z,810.82
2017-12-30T11:34:01.505Z,810.84
2017-12-30T11:35:01.512Z,810.93
2017-12-30T11:36:01.522Z,810.93
2017-12-30T11:37:01.525Z,810.90
2017-12-30T11:38:01.535Z,810.88
2017-12-30T11:39:01.537Z,810.71
2017-12-30T11:40:01.558Z,810.69
2017-12-30T11:41:01.559Z,810.77
2017-12-30T11:42:01.565Z,810.80
2017-12-30T11:43:01.572Z,810.83
2017-12-30T11:44:01.576Z,810.84
2017-12-30T11:45:01.595Z,810.81
2017-12-30T11:46:01.595Z,810.89
2017-12-30T11:47:01.607Z,810.97
2017-12-30T11:48:01.612Z,810.85
2017-12-30T11:49:01.624Z,810.82
2017-12-30T11:50:01.629Z,810.96
2017-12-30T11:51:01.637Z,810.93
2017-12-30T11:52:01.640Z,811.01
2017-12-30T11:53:01.654Z,811.06
2017-12-30T11:54:01.657Z,811.17
2017-12-30T11:55:01.670Z,811.13
2017-12-30T11:56:01.683Z,811.09
2017-12-30T11:57:01.719Z,811.08
2017-12-30T11:58:01.691Z,811.12
2017-12-30T11:59:01.721Z,811.06
2017-12-30T12:00:01.708Z,811.04
2017-12-30T12:01:01.711Z,811.13
2017-12-30T12:02:01.719Z,811.13
2017-12-30T12:03:01.736Z,811.06
2017-12-30T12:04:01.733Z,811.08
2017-12-30T12:05:01.750Z,810.98
2017-12-30T12:06:01.756Z,811.16
2017-12-30T12:07:01.761Z,811.16
2017-12-30T12:08:01.775Z,811.14
2017-12-30T12:09:01.778Z,811.04
2017-12-30T12:10:01.781Z,811.10
2017-12-30T12:11:01.798Z,811.11
2017-12-30T12:12:01.802Z,811.16
2017-12-30T12:13:01.816Z,811.21
2017-12-30T12:14:01.811Z,811.18
2017-12-30T12:15:01.821Z,811.18
2017-12-30T12:16:01.833Z,811.18
2017-12-30T12:17:01.839Z,811.23
2017-12-30T12:18:01.850Z,811.35
2017-12-30T12:19:01.860Z,811.30
2017-12-30T12:20:01.882Z,811.32
2017-12-30T12:21:01.874Z,811.39
2017-12-30T12:22:01.880Z,811.40
2017-12-30T12:23:01.884Z,811.39
2017-12-30T12:24:01.897Z,811.48
2017-12-30T12:25:01.901Z,811.40
2017-12-30T12:26:01.912Z,811.46
2017-12-30T12:27:01.919Z,811.50
2017-12-30T12:28:01.921Z,811.43
2017-12-30T12:29:01.937Z,811.43